Flight Track Log - Related Links

Times and Time Zones

All times are in EDT time to prevent confusion due to time zone crossing. See the SWA22 flight status page for this flight to view local times or setup timezone preferences in your user account.


Time Position Orientation Groundspeed Altitude Reporting Facility
EDT Latitude Longitude Course Direction KTS MPH feet Rate Location/Type
Wed 04:29:50 PM 32.8667 -96.8833 301° West 157 181 2,400  Level Dallas / Fort Worth TRACON
Wed 04:30:50 PM 32.9000 -96.9333 308° West 206 237 5,500 2,762 Climbing Dallas / Fort Worth TRACON
Wed 04:31:56 PM 32.9667 -97.0000 320° Northwest 277 319 8,200 2,500 Climbing Dallas / Fort Worth TRACON
Wed 04:32:50 PM 33.0167 -97.0333 331° Northwest 302 348 10,500 2,895 Climbing Dallas / Fort Worth TRACON
Wed 04:33:50 PM 33.0667 -97.1167 306° West 298 343 13,700 1,980 Climbing Dallas / Fort Worth TRACON
Wed 04:35:00 PM 33.1291 -97.4081 301° West  Level FlightAware Approximate
Wed 04:36:07 PM 33.0733 -97.3714 272° West 347 399 17,000  Level Fort Worth Center
Wed 04:37:07 PM 33.0775 -97.4803 273° West 365 420 17,900 1,400 Climbing Fort Worth Center
Wed 04:38:07 PM 33.0836 -97.5944 274° West 365 420 19,800 2,450 Climbing Fort Worth Center
Wed 04:39:07 PM 33.0958 -97.7483 275° West 389 448 22,800 2,800 Climbing Fort Worth Center
Wed 04:40:07 PM 33.1331 -97.8650 291° West 408 470 25,400 2,450 Climbing Fort Worth Center
Wed 04:41:07 PM 33.1722 -97.9892 291° West 408 470 27,700 2,050 Climbing Fort Worth Center
Wed 04:42:07 PM 33.2133 -98.1236 290° West 398 458 29,500 2,150 Climbing Fort Worth Center
Wed 04:43:07 PM 33.2503 -98.2431 290° West 391 450 32,000 2,250 Climbing Fort Worth Center
Wed 04:44:07 PM 33.2869 -98.3553 291° West 377 434 34,000 1,500 Climbing Fort Worth Center
Wed 04:45:07 PM 33.3239 -98.4378 298° West 359 413 35,000 1,000 Climbing Fort Worth Center
Wed 04:46:07 PM 33.3917 -98.5506 306° West 369 425 36,000 500 Climbing Fort Worth Center
Wed 04:47:07 PM 33.4575 -98.6583 306° West 387 445 36,000  Level Fort Worth Center
Wed 04:48:07 PM 33.5211 -98.7614 307° West 392 451 36,000  Level Fort Worth Center
Wed 04:49:07 PM 33.5950 -98.8847 306° West 403 464 36,000  Level Fort Worth Center
Wed 04:50:07 PM 33.6561 -98.9906 305° West 403 464 36,000  Level Fort Worth Center
Wed 04:51:07 PM 33.7156 -99.0867 307° West 403 464 36,000  Level Fort Worth Center
Wed 04:52:07 PM 33.7808 -99.1903 307° West 398 458 36,000  Level Fort Worth Center
Wed 04:53:07 PM 33.8461 -99.2992 306° West 398 458 36,000  Level Fort Worth Center
Wed 04:54:07 PM 33.9153 -99.4133 306° West 410 472 36,000  Level Fort Worth Center
Wed 04:55:07 PM 33.9822 -99.5275 305° West 410 472 36,000  Level Fort Worth Center
Wed 04:56:07 PM 34.0492 -99.6444 305° West 415 478 36,000  Level Fort Worth Center
Wed 04:57:07 PM 34.1178 -99.7592 306° West 415 478 36,000  Level Fort Worth Center
Wed 04:58:07 PM 34.1847 -99.8689 306° West 421 484 36,000  Level Fort Worth Center
Wed 04:59:07 PM 34.2531 -99.9889 305° West 427 491 36,000 -350 Level Fort Worth Center
Wed 05:00:07 PM 34.3175 -100.1039 304° West 427 491 35,300 -1,544 Descending Fort Worth Center
Wed 05:01:23 PM 34.4042 -100.2439 307° West 404 465 32,500 -2,304 Descending Albuquerque Center
Wed 05:02:25 PM 34.4700 -100.3569 305° West 406 467 30,000 -2,323 Descending Albuquerque Center
Wed 05:03:27 PM 34.5331 -100.4644 305° West 398 458 27,700 -2,160 Descending Albuquerque Center
Wed 05:04:30 PM 34.5928 -100.5675 305° West 381 438 25,500 -2,304 Descending Albuquerque Center
Wed 05:05:32 PM 34.6600 -100.6850 305° West 360 414 22,900 -2,226 Descending Albuquerque Center
Wed 05:06:34 PM 34.7142 -100.7786 305° West 346 398 20,900 -1,887 Descending Albuquerque Center
Wed 05:07:36 PM 34.7644 -100.8653 305° West 324 373 19,000 -1,790 Descending Albuquerque Center
Wed 05:08:38 PM 34.8125 -100.9511 304° West 312 359 17,200 -1,790 Descending Albuquerque Center
Wed 05:09:40 PM 34.8597 -101.0333 305° West 301 346 15,300 -1,839 Descending Albuquerque Center
Wed 05:10:42 PM 34.9050 -101.1131 305° West 292 336 13,400 -1,597 Descending Albuquerque Center
Wed 05:11:44 PM 34.9536 -101.2094 302° West 282 325 12,000 -1,548 Descending Albuquerque Center
Wed 05:12:46 PM 34.9908 -101.2842 301° West 264 304 10,200 -1,645 Descending Albuquerque Center
Wed 05:13:48 PM 35.0272 -101.3589 301° West 260 299 8,600 -1,355 Descending Albuquerque Center
Wed 05:14:50 PM 35.0636 -101.4331 301° West 257 296 7,400 -1,306 Descending Albuquerque Center
Wed 05:15:52 PM 35.0944 -101.5072 297° West 251 289 5,900 -823 Descending Albuquerque Center
Wed 05:16:54 PM 35.1211 -101.5758 295° West 235 270 5,700 -387 Descending Albuquerque Center
Wed 05:17:56 PM 35.1675 -101.6267 318° Northwest 197 227 5,100 -726 Descending Albuquerque Center
Wed 05:18:58 PM 35.1956 -101.6589 317° Northwest 163 188 4,200 -677 Descending Albuquerque Center
Wed 05:20:00 PM 35.2214 -101.6867 319° Northwest 137 158 3,700 -484 Descending Albuquerque Center

Login

Don't have an account? Register now (free) for customized features, flight alerts, and more!